Terminal Aerodrome Forecast
Issued by NWS

Home | Current Version | Previous Version | Text Only | Print | Product List | Glossary On
Versions: 1 2 3 4 5 6 7 8 9 10 11 12 13 14 15 16 17
254
FTUS43 KLSX 042339
TAFCPS
TAF
KCPS 042339Z 0500/0524 29005KT P6SM OVC018
     FM050400 29004KT P6SM SCT250
     FM050900 00000KT 3SM BR SCT008
     FM051500 16004KT P6SM SCT250=

USA.gov is the U.S. government's official web portal to all federal, state and local government web resources and services.